sensor_id;sensor_type;location;lat;lon;timestamp;pressure;altitude;pressure_sealevel;temperature;humidity
13314;BME280;6725;48.112;11.604;2023-04-07T00:00:21;95323.31;;;5.02;100.00
13314;BME280;6725;48.112;11.604;2023-04-07T00:02:46;95336.03;;;5.02;100.00
13314;BME280;6725;48.112;11.604;2023-04-07T00:05:13;95322.94;;;5.04;100.00
13314;BME280;6725;48.112;11.604;2023-04-07T00:07:38;95320.97;;;5.01;100.00
13314;BME280;6725;48.112;11.604;2023-04-07T00:10:04;95323.66;;;5.01;100.00
13314;BME280;6725;48.112;11.604;2023-04-07T00:12:30;95327.53;;;5.00;100.00
13314;BME280;6725;48.112;11.604;2023-04-07T00:14:55;95318.22;;;4.97;100.00
13314;BME280;6725;48.112;11.604;2023-04-07T00:17:20;95320.97;;;5.01;100.00
13314;BME280;6725;48.112;11.604;2023-04-07T00:19:46;95324.09;;;5.03;100.00
13314;BME280;6725;48.112;11.604;2023-04-07T00:22:11;95320.97;;;5.01;100.00
13314;BME280;6725;48.112;11.604;2023-04-07T00:24:36;95320.66;;;5.06;100.00
13314;BME280;6725;48.112;11.604;2023-04-07T00:27:02;95320.66;;;5.06;100.00
13314;BME280;6725;48.112;11.604;2023-04-07T00:29:27;95314.47;;;5.09;100.00
13314;BME280;6725;48.112;11.604;2023-04-07T00:31:53;95316.44;;;5.12;100.00
13314;BME280;6725;48.112;11.604;2023-04-07T00:34:18;95315.31;;;5.13;100.00
13314;BME280;6725;48.112;11.604;2023-04-07T00:36:43;95317.97;;;5.09;100.00
13314;BME280;6725;48.112;11.604;2023-04-07T00:39:14;95319.88;;;5.09;100.00
13314;BME280;6725;48.112;11.604;2023-04-07T00:41:39;95308.69;;;5.10;100.00
13314;BME280;6725;48.112;11.604;2023-04-07T00:44:04;95317.59;;;5.11;100.00
13314;BME280;6725;48.112;11.604;2023-04-07T00:46:30;95314.56;;;5.16;100.00
13314;BME280;6725;48.112;11.604;2023-04-07T00:49:04;95302.16;;;5.11;100.00
13314;BME280;6725;48.112;11.604;2023-04-07T00:51:32;95311.47;;;5.14;100.00
13314;BME280;6725;48.112;11.604;2023-04-07T00:53:59;95303.34;;;5.14;100.00
13314;BME280;6725;48.112;11.604;2023-04-07T00:56:24;95296.03;;;5.18;100.00
13314;BME280;6725;48.112;11.604;2023-04-07T00:58:51;95294.13;;;5.18;100.00
13314;BME280;6725;48.112;11.604;2023-04-07T01:07:07;95291.47;;;5.25;100.00
13314;BME280;6725;48.112;11.604;2023-04-07T01:09:47;95289.97;;;5.28;100.00
13314;BME280;6725;48.112;11.604;2023-04-07T01:12:29;95287.25;;;5.28;100.00
13314;BME280;6725;48.112;11.604;2023-04-07T01:15:04;95285.69;;;5.27;100.00
13314;BME280;6725;48.112;11.604;2023-04-07T01:17:33;95281.47;;;5.29;100.00
13314;BME280;6725;48.112;11.604;2023-04-07T01:20:04;95286.09;;;5.29;100.00
13314;BME280;6725;48.112;11.604;2023-04-07T01:22:56;95279.16;;;5.31;100.00
13314;BME280;6725;48.112;11.604;2023-04-07T01:28:28;95286.16;;;5.36;100.00
13314;BME280;6725;48.112;11.604;2023-04-07T01:30:58;95279.22;;;5.35;100.00
13314;BME280;6725;48.112;11.604;2023-04-07T01:33:27;95271.09;;;5.35;100.00
13314;BME280;6725;48.112;11.604;2023-04-07T01:35:57;95273.00;;;5.34;100.00
13314;BME280;6725;48.112;11.604;2023-04-07T01:38:24;95272.25;;;5.37;100.00
13314;BME280;6725;48.112;11.604;2023-04-07T01:40:51;95272.28;;;5.41;100.00
13314;BME280;6725;48.112;11.604;2023-04-07T01:43:17;95276.97;;;5.44;100.00
13314;BME280;6725;48.112;11.604;2023-04-07T01:45:44;95273.09;;;5.45;100.00
13314;BME280;6725;48.112;11.604;2023-04-07T01:48:10;95276.22;;;5.47;100.00
13314;BME280;6725;48.112;11.604;2023-04-07T01:50:37;95281.25;;;5.48;100.00
13314;BME280;6725;48.112;11.604;2023-04-07T01:53:03;95275.47;;;5.50;100.00
13314;BME280;6725;48.112;11.604;2023-04-07T01:55:30;95277.03;;;5.51;100.00
13314;BME280;6725;48.112;11.604;2023-04-07T01:57:55;95270.06;;;5.50;100.00
13314;BME280;6725;48.112;11.604;2023-04-07T02:00:22;95273.88;;;5.45;100.00
13314;BME280;6725;48.112;11.604;2023-04-07T02:02:51;95267.28;;;5.43;100.00
13314;BME280;6725;48.112;11.604;2023-04-07T02:05:20;95266.13;;;5.44;100.00
13314;BME280;6725;48.112;11.604;2023-04-07T02:07:54;95269.22;;;5.42;100.00
13314;BME280;6725;48.112;11.604;2023-04-07T02:10:23;95263.00;;;5.42;100.00
13314;BME280;6725;48.112;11.604;2023-04-07T02:12:51;95263.84;;;5.46;100.00
13314;BME280;6725;48.112;11.604;2023-04-07T02:15:18;95261.50;;;5.44;100.00
13314;BME280;6725;48.112;11.604;2023-04-07T02:17:47;95264.22;;;5.48;100.00
13314;BME280;6725;48.112;11.604;2023-04-07T02:20:14;95265.84;;;5.56;100.00
13314;BME280;6725;48.112;11.604;2023-04-07T02:22:40;95262.38;;;5.59;100.00
13314;BME280;6725;48.112;11.604;2023-04-07T02:25:26;95250.81;;;5.62;100.00
13314;BME280;6725;48.112;11.604;2023-04-07T02:27:52;95254.75;;;5.68;100.00
13314;BME280;6725;48.112;11.604;2023-04-07T02:30:18;95259.38;;;5.71;100.00
13314;BME280;6725;48.112;11.604;2023-04-07T02:32:44;95252.47;;;5.77;100.00
13314;BME280;6725;48.112;11.604;2023-04-07T02:35:09;95247.16;;;5.84;100.00
13314;BME280;6725;48.112;11.604;2023-04-07T02:37:36;95254.16;;;5.92;100.00
13314;BME280;6725;48.112;11.604;2023-04-07T02:40:02;95243.38;;;5.95;100.00
13314;BME280;6725;48.112;11.604;2023-04-07T02:42:28;95244.53;;;5.98;100.00
13314;BME280;6725;48.112;11.604;2023-04-07T02:44:53;95241.88;;;6.05;100.00
13314;BME280;6725;48.112;11.604;2023-04-07T02:47:18;95251.19;;;6.11;100.00
13314;BME280;6725;48.112;11.604;2023-04-07T02:49:44;95252.75;;;6.12;100.00
13314;BME280;6725;48.112;11.604;2023-04-07T02:52:09;95255.84;;;6.14;100.00
13314;BME280;6725;48.112;11.604;2023-04-07T02:54:35;95259.00;;;6.19;100.00
13314;BME280;6725;48.112;11.604;2023-04-07T02:57:00;95254.34;;;6.20;100.00
13314;BME280;6725;48.112;11.604;2023-04-07T02:59:25;95255.50;;;6.19;100.00
13314;BME280;6725;48.112;11.604;2023-04-07T03:01:51;95259.78;;;6.20;100.00
13314;BME280;6725;48.112;11.604;2023-04-07T03:04:16;95263.25;;;6.20;100.00
13314;BME280;6725;48.112;11.604;2023-04-07T03:06:42;95262.88;;;6.18;100.00
13314;BME280;6725;48.112;11.604;2023-04-07T03:09:07;95264.81;;;6.21;100.00
13314;BME280;6725;48.112;11.604;2023-04-07T03:11:32;95261.31;;;6.21;100.00
13314;BME280;6725;48.112;11.604;2023-04-07T03:13:58;95259.75;;;6.16;100.00
13314;BME280;6725;48.112;11.604;2023-04-07T03:16:23;95262.44;;;6.13;100.00
13314;BME280;6725;48.112;11.604;2023-04-07T03:18:48;95250.06;;;6.12;100.00
13314;BME280;6725;48.112;11.604;2023-04-07T03:21:14;95248.88;;;6.13;100.00
13314;BME280;6725;48.112;11.604;2023-04-07T03:23:39;95260.91;;;6.12;100.00
13314;BME280;6725;48.112;11.604;2023-04-07T03:26:05;95253.91;;;6.11;100.00
13314;BME280;6725;48.112;11.604;2023-04-07T03:28:30;95253.50;;;6.09;100.00
13314;BME280;6725;48.112;11.604;2023-04-07T03:30:56;95246.09;;;6.02;100.00
13314;BME280;6725;48.112;11.604;2023-04-07T03:33:21;95256.50;;;5.97;100.00
13314;BME280;6725;48.112;11.604;2023-04-07T03:35:46;95237.16;;;5.95;100.00
13314;BME280;6725;48.112;11.604;2023-04-07T03:38:12;95243.31;;;5.92;100.00
13314;BME280;6725;48.112;11.604;2023-04-07T03:40:37;95239.41;;;5.86;100.00
13314;BME280;6725;48.112;11.604;2023-04-07T03:43:02;95242.88;;;5.83;100.00
13314;BME280;6725;48.112;11.604;2023-04-07T03:45:28;95240.09;;;5.76;100.00
13314;BME280;6725;48.112;11.604;2023-04-07T03:47:53;95233.09;;;5.71;100.00
13314;BME280;6725;48.112;11.604;2023-04-07T03:50:19;95233.88;;;5.72;100.00
13314;BME280;6725;48.112;11.604;2023-04-07T03:52:44;95239.63;;;5.67;100.00
13314;BME280;6725;48.112;11.604;2023-04-07T03:55:10;95233.06;;;5.68;100.00
13314;BME280;6725;48.112;11.604;2023-04-07T03:57:35;95229.19;;;5.69;100.00
13314;BME280;6725;48.112;11.604;2023-04-07T04:00:01;95233.06;;;5.68;100.00
13314;BME280;6725;48.112;11.604;2023-04-07T04:02:27;95236.09;;;5.59;100.00
13314;BME280;6725;48.112;11.604;2023-04-07T04:04:52;95226.03;;;5.60;100.00
13314;BME280;6725;48.112;11.604;2023-04-07T04:07:17;95231.44;;;5.60;100.00
13314;BME280;6725;48.112;11.604;2023-04-07T04:09:43;95222.94;;;5.58;100.00
13314;BME280;6725;48.112;11.604;2023-04-07T04:12:08;95223.66;;;5.55;100.00
13314;BME280;6725;48.112;11.604;2023-04-07T04:14:33;95222.13;;;5.57;100.00
13314;BME280;6725;48.112;11.604;2023-04-07T04:16:59;95225.22;;;5.56;100.00
13314;BME280;6725;48.112;11.604;2023-04-07T04:19:24;95219.00;;;5.52;100.00
13314;BME280;6725;48.112;11.604;2023-04-07T04:21:50;95221.31;;;5.50;100.00
13314;BME280;6725;48.112;11.604;2023-04-07T04:24:16;95220.53;;;5.53;100.00
13314;BME280;6725;48.112;11.604;2023-04-07T04:26:41;95222.13;;;5.54;100.00
13314;BME280;6725;48.112;11.604;2023-04-07T04:29:07;95222.88;;;5.51;100.00
13314;BME280;6725;48.112;11.604;2023-04-07T04:31:32;95225.56;;;5.51;100.00
13314;BME280;6725;48.112;11.604;2023-04-07T04:33:57;95217.44;;;5.51;100.00
13314;BME280;6725;48.112;11.604;2023-04-07T04:36:23;95213.63;;;5.55;100.00
13314;BME280;6725;48.112;11.604;2023-04-07T04:38:48;95219.81;;;5.56;100.00
13314;BME280;6725;48.112;11.604;2023-04-07T04:41:14;95210.16;;;5.58;100.00
13314;BME280;6725;48.112;11.604;2023-04-07T04:43:39;95220.22;;;5.58;100.00
13314;BME280;6725;48.112;11.604;2023-04-07T04:46:05;95229.50;;;5.57;100.00
13314;BME280;6725;48.112;11.604;2023-04-07T04:48:31;95217.44;;;5.51;100.00
13314;BME280;6725;48.112;11.604;2023-04-07T04:50:56;95214.75;;;5.54;100.00
13314;BME280;6725;48.112;11.604;2023-04-07T04:53:21;95214.75;;;5.51;100.00
13314;BME280;6725;48.112;11.604;2023-04-07T04:55:47;95215.13;;;5.49;100.00
13314;BME280;6725;48.112;11.604;2023-04-07T04:58:17;95225.22;;;5.56;100.00
13314;BME280;6725;48.112;11.604;2023-04-07T05:00:42;95215.97;;;5.57;100.00
13314;BME280;6725;48.112;11.604;2023-04-07T05:03:07;95214.38;;;5.56;100.00
13314;BME280;6725;48.112;11.604;2023-04-07T05:05:33;95213.25;;;5.57;100.00
13314;BME280;6725;48.112;11.604;2023-04-07T05:07:58;95218.28;;;5.58;100.00
13314;BME280;6725;48.112;11.604;2023-04-07T05:10:23;95204.31;;;5.53;100.00
13314;BME280;6725;48.112;11.604;2023-04-07T05:12:49;95210.91;;;5.55;100.00
13314;BME280;6725;48.112;11.604;2023-04-07T05:15:15;95206.63;;;5.54;100.00
13314;BME280;6725;48.112;11.604;2023-04-07T05:17:40;95207.44;;;5.55;100.00
13314;BME280;6725;48.112;11.604;2023-04-07T05:20:09;95209.38;;;5.58;100.00
13314;BME280;6725;48.112;11.604;2023-04-07T05:22:35;95211.69;;;5.56;100.00
13314;BME280;6725;48.112;11.604;2023-04-07T05:25:00;95206.69;;;5.58;100.00
13314;BME280;6725;48.112;11.604;2023-04-07T05:27:26;95202.38;;;5.50;100.00
13314;BME280;6725;48.112;11.604;2023-04-07T05:29:51;95204.31;;;5.53;100.00
13314;BME280;6725;48.112;11.604;2023-04-07T05:32:17;95189.63;;;5.54;100.00
13314;BME280;6725;48.112;11.604;2023-04-07T05:34:43;95198.88;;;5.53;100.00
13314;BME280;6725;48.112;11.604;2023-04-07T05:37:08;95202.38;;;5.53;100.00
13314;BME280;6725;48.112;11.604;2023-04-07T05:39:34;95193.47;;;5.53;100.00
13314;BME280;6725;48.112;11.604;2023-04-07T05:41:59;95193.47;;;5.53;100.00
13314;BME280;6725;48.112;11.604;2023-04-07T05:44:26;95188.47;;;5.58;100.00
13314;BME280;6725;48.112;11.604;2023-04-07T05:46:51;95197.41;;;5.59;100.00
13314;BME280;6725;48.112;11.604;2023-04-07T05:49:16;95185.81;;;5.62;100.00
13314;BME280;6725;48.112;11.604;2023-04-07T05:51:42;95191.28;;;5.69;100.00
13314;BME280;6725;48.112;11.604;2023-04-07T05:54:07;95191.28;;;5.69;100.00
13314;BME280;6725;48.112;11.604;2023-04-07T05:56:33;95192.88;;;5.80;100.00
13314;BME280;6725;48.112;11.604;2023-04-07T05:58:58;95187.22;;;5.96;100.00
13314;BME280;6725;48.112;11.604;2023-04-07T06:01:24;95185.34;;;6.07;100.00
13314;BME280;6725;48.112;11.604;2023-04-07T06:03:50;95190.09;;;6.24;100.00
13314;BME280;6725;48.112;11.604;2023-04-07T06:06:15;95187.75;;;6.26;100.00
13314;BME280;6725;48.112;11.604;2023-04-07T06:08:40;95188.97;;;6.32;100.00
13314;BME280;6725;48.112;11.604;2023-04-07T06:11:06;95196.28;;;6.24;100.00
13314;BME280;6725;48.112;11.604;2023-04-07T06:13:31;95187.38;;;6.27;100.00
13314;BME280;6725;48.112;11.604;2023-04-07T06:15:56;95190.84;;;6.24;100.00
13314;BME280;6725;48.112;11.604;2023-04-07T06:18:22;95191.63;;;6.25;100.00
13314;BME280;6725;48.112;11.604;2023-04-07T06:20:47;95189.25;;;6.16;100.00
13314;BME280;6725;48.112;11.604;2023-04-07T06:23:13;95183.78;;;6.06;100.00
13314;BME280;6725;48.112;11.604;2023-04-07T06:25:38;95184.22;;;6.11;100.00
13314;BME280;6725;48.112;11.604;2023-04-07T06:28:04;95180.78;;;6.25;100.00
13314;BME280;6725;48.112;11.604;2023-04-07T06:30:29;95189.38;;;6.37;100.00
13314;BME280;6725;48.112;11.604;2023-04-07T06:32:55;95176.19;;;6.36;100.00
13314;BME280;6725;48.112;11.604;2023-04-07T06:35:20;95172.69;;;6.28;100.00
13314;BME280;6725;48.112;11.604;2023-04-07T06:37:46;95171.53;;;6.33;100.00
13314;BME280;6725;48.112;11.604;2023-04-07T06:40:11;95170.00;;;6.39;100.00
13314;BME280;6725;48.112;11.604;2023-04-07T06:42:36;95169.31;;;6.56;100.00
13314;BME280;6725;48.112;11.604;2023-04-07T06:45:02;95170.91;;;6.71;100.00
13314;BME280;6725;48.112;11.604;2023-04-07T06:47:27;95174.78;;;6.84;100.00
13314;BME280;6725;48.112;11.604;2023-04-07T06:49:53;95173.22;;;6.65;100.00
13314;BME280;6725;48.112;11.604;2023-04-07T06:52:18;95174.81;;;6.80;100.00
13314;BME280;6725;48.112;11.604;2023-04-07T06:54:44;95170.94;;;6.85;100.00
13314;BME280;6725;48.112;11.604;2023-04-07T06:57:09;95163.94;;;6.91;100.00
13314;BME280;6725;48.112;11.604;2023-04-07T06:59:39;95163.97;;;7.05;100.00
13314;BME280;6725;48.112;11.604;2023-04-07T07:02:05;95167.88;;;7.25;100.00
13314;BME280;6725;48.112;11.604;2023-04-07T07:04:32;95166.34;;;7.28;100.00
13314;BME280;6725;48.112;11.604;2023-04-07T07:06:57;95159.31;;;7.20;100.00
13314;BME280;6725;48.112;11.604;2023-04-07T07:09:23;95173.31;;;7.46;100.00
13314;BME280;6725;48.112;11.604;2023-04-07T07:11:48;95165.56;;;7.55;100.00
13314;BME280;6725;48.112;11.604;2023-04-07T07:14:13;95164.78;;;7.55;100.00
13314;BME280;6725;48.112;11.604;2023-04-07T07:16:39;95165.16;;;7.81;100.00
13314;BME280;6725;48.112;11.604;2023-04-07T07:19:05;95174.81;;;8.10;100.00
13314;BME280;6725;48.112;11.604;2023-04-07T07:21:30;95179.50;;;7.99;100.00
13314;BME280;6725;48.112;11.604;2023-04-07T07:23:56;95171.69;;;8.19;100.00
13314;BME280;6725;48.112;11.604;2023-04-07T07:26:21;95174.78;;;8.17;100.00
13314;BME280;6725;48.112;11.604;2023-04-07T07:28:47;95183.34;;;8.16;100.00
13314;BME280;6725;48.112;11.604;2023-04-07T07:31:12;95181.81;;;7.90;100.00
13314;BME280;6725;48.112;11.604;2023-04-07T07:33:39;95184.88;;;8.10;100.00
13314;BME280;6725;48.112;11.604;2023-04-07T07:36:07;95181.38;;;8.16;100.00
13314;BME280;6725;48.112;11.604;2023-04-07T07:38:33;95173.22;;;8.09;100.00
13314;BME280;6725;48.112;11.604;2023-04-07T07:40:58;95171.66;;;8.29;100.00
13314;BME280;6725;48.112;11.604;2023-04-07T07:43:23;95171.25;;;8.34;100.00
13314;BME280;6725;48.112;11.604;2023-04-07T07:45:49;95169.19;;;8.66;100.00
13314;BME280;6725;48.112;11.604;2023-04-07T07:48:14;95176.97;;;8.61;100.00
13314;BME280;6725;48.112;11.604;2023-04-07T07:50:39;95173.38;;;8.81;100.00
13314;BME280;6725;48.112;11.604;2023-04-07T07:53:05;95176.84;;;8.85;100.00
13314;BME280;6725;48.112;11.604;2023-04-07T07:55:30;95174.09;;;8.92;100.00
13314;BME280;6725;48.112;11.604;2023-04-07T07:57:55;95177.44;;;9.17;100.00
13314;BME280;6725;48.112;11.604;2023-04-07T08:00:21;95171.91;;;9.28;100.00
13314;BME280;6725;48.112;11.604;2023-04-07T08:02:48;95174.25;;;9.29;100.00
13314;BME280;6725;48.112;11.604;2023-04-07T08:05:13;95172.78;;;9.18;100.00
13314;BME280;6725;48.112;11.604;2023-04-07T08:07:39;95169.53;;;9.33;100.00
13314;BME280;6725;48.112;11.604;2023-04-07T08:10:04;95171.72;;;9.56;100.00
13314;BME280;6725;48.112;11.604;2023-04-07T08:12:30;95169.28;;;9.65;100.00
13314;BME280;6725;48.112;11.604;2023-04-07T08:14:55;95169.44;;;9.51;100.00
13314;BME280;6725;48.112;11.604;2023-04-07T08:17:21;95168.59;;;9.57;100.00
13314;BME280;6725;48.112;11.604;2023-04-07T08:19:46;95166.91;;;9.70;100.00
13314;BME280;6725;48.112;11.604;2023-04-07T08:22:11;95173.94;;;9.71;100.00
13314;BME280;6725;48.112;11.604;2023-04-07T08:24:37;95163.88;;;9.61;100.00
13314;BME280;6725;48.112;11.604;2023-04-07T08:27:02;95166.22;;;9.59;100.00
13314;BME280;6725;48.112;11.604;2023-04-07T08:29:28;95159.41;;;9.85;100.00
13314;BME280;6725;48.112;11.604;2023-04-07T08:31:53;95159.97;;;10.10;100.00
13314;BME280;6725;48.112;11.604;2023-04-07T08:34:18;95158.66;;;10.22;100.00
13314;BME280;6725;48.112;11.604;2023-04-07T08:36:45;95154.50;;;10.44;100.00
13314;BME280;6725;48.112;11.604;2023-04-07T08:39:10;95153.59;;;10.20;100.00
13314;BME280;6725;48.112;11.604;2023-04-07T08:41:37;95156.84;;;10.45;100.00
13314;BME280;6725;48.112;11.604;2023-04-07T08:44:03;95157.94;;;10.81;100.00
13314;BME280;6725;48.112;11.604;2023-04-07T08:46:32;95157.28;;;10.74;100.00
13314;BME280;6725;48.112;11.604;2023-04-07T08:48:58;95150.94;;;10.80;100.00
13314;BME280;6725;48.112;11.604;2023-04-07T08:51:30;95149.34;;;10.83;100.00
13314;BME280;6725;48.112;11.604;2023-04-07T08:54:07;95147.16;;;11.01;100.00
13314;BME280;6725;48.112;11.604;2023-04-07T08:56:33;95145.56;;;11.53;100.00
13314;BME280;6725;48.112;11.604;2023-04-07T08:59:00;95149.91;;;11.77;100.00
13314;BME280;6725;48.112;11.604;2023-04-07T09:01:26;95154.31;;;11.71;100.00
13314;BME280;6725;48.112;11.604;2023-04-07T09:03:56;95158.22;;;11.70;100.00
13314;BME280;6725;48.112;11.604;2023-04-07T09:06:22;95148.22;;;11.83;100.00
13314;BME280;6725;48.112;11.604;2023-04-07T09:08:48;95152.03;;;11.89;100.00
13314;BME280;6725;48.112;11.604;2023-04-07T09:11:13;95151.72;;;12.29;100.00
13314;BME280;6725;48.112;11.604;2023-04-07T09:13:39;95150.84;;;12.32;100.00
13314;BME280;6725;48.112;11.604;2023-04-07T09:16:05;95148.78;;;12.98;100.00
13314;BME280;6725;48.112;11.604;2023-04-07T09:18:30;95146.78;;;12.79;100.00
13314;BME280;6725;48.112;11.604;2023-04-07T09:20:57;95143.56;;;12.65;100.00
13314;BME280;6725;48.112;11.604;2023-04-07T09:23:33;95147.00;;;13.08;100.00
13314;BME280;6725;48.112;11.604;2023-04-07T09:26:17;95147.44;;;13.06;100.00
13314;BME280;6725;48.112;11.604;2023-04-07T09:28:45;95149.53;;;12.99;100.00
13314;BME280;6725;48.112;11.604;2023-04-07T09:31:11;95141.38;;;12.76;98.95
13314;BME280;6725;48.112;11.604;2023-04-07T09:33:37;95137.75;;;14.59;92.24
13314;BME280;6725;48.112;11.604;2023-04-07T09:36:04;95138.00;;;14.36;86.36
13314;BME280;6725;48.112;11.604;2023-04-07T09:38:35;95138.31;;;13.61;90.02
13314;BME280;6725;48.112;11.604;2023-04-07T09:41:19;95137.69;;;14.02;87.38
13314;BME280;6725;48.112;11.604;2023-04-07T09:43:45;95127.50;;;16.00;82.50
13314;BME280;6725;48.112;11.604;2023-04-07T09:46:15;95125.63;;;17.09;73.77
13314;BME280;6725;48.112;11.604;2023-04-07T09:48:42;95130.47;;;17.48;67.39
13314;BME280;6725;48.112;11.604;2023-04-07T09:51:14;95130.47;;;17.48;67.39
13314;BME280;6725;48.112;11.604;2023-04-07T09:53:43;95130.47;;;17.48;67.39
13314;BME280;6725;48.112;11.604;2023-04-07T09:56:09;95130.47;;;17.48;67.39
13314;BME280;6725;48.112;11.604;2023-04-07T09:58:37;95130.47;;;17.48;67.39
13314;BME280;6725;48.112;11.604;2023-04-07T10:01:05;95130.47;;;17.48;67.39
13314;BME280;6725;48.112;11.604;2023-04-07T10:03:31;95130.47;;;17.48;67.39
13314;BME280;6725;48.112;11.604;2023-04-07T10:06:02;95130.47;;;17.48;67.39
13314;BME280;6725;48.112;11.604;2023-04-07T10:08:30;95130.47;;;17.48;67.39
13314;BME280;6725;48.112;11.604;2023-04-07T10:10:57;95130.47;;;17.48;67.39
13314;BME280;6725;48.112;11.604;2023-04-07T10:13:24;95130.47;;;17.48;67.39
13314;BME280;6725;48.112;11.604;2023-04-07T10:15:50;95114.97;;;19.99;50.33
13314;BME280;6725;48.112;11.604;2023-04-07T10:18:17;95112.13;;;19.52;52.11
13314;BME280;6725;48.112;11.604;2023-04-07T10:20:44;95115.50;;;19.56;51.24
13314;BME280;6725;48.112;11.604;2023-04-07T10:23:26;95112.25;;;18.98;52.94
13314;BME280;6725;48.112;11.604;2023-04-07T10:25:55;95107.69;;;19.45;52.65
13314;BME280;6725;48.112;11.604;2023-04-07T10:28:22;95107.72;;;19.78;51.28
13314;BME280;6725;48.112;11.604;2023-04-07T10:30:49;95111.34;;;18.74;53.76
13314;BME280;6725;48.112;11.604;2023-04-07T10:33:15;95111.44;;;18.07;57.15
13314;BME280;6725;48.112;11.604;2023-04-07T10:38:27;95107.88;;;19.42;54.78
13314;BME280;6725;48.112;11.604;2023-04-07T10:40:53;95105.97;;;19.48;52.28
13314;BME280;6725;48.112;11.604;2023-04-07T10:43:38;95124.13;;;17.17;57.25
13314;BME280;6725;48.112;11.604;2023-04-07T10:46:05;95113.59;;;16.51;62.37
13314;BME280;6725;48.112;11.604;2023-04-07T10:48:31;95112.59;;;16.79;62.58
13314;BME280;6725;48.112;11.604;2023-04-07T10:53:31;95111.31;;;16.71;63.79
13314;BME280;6725;48.112;11.604;2023-04-07T10:55:57;95100.38;;;15.02;70.25
13314;BME280;6725;48.112;11.604;2023-04-07T11:03:25;95098.47;;;18.62;57.12
13314;BME280;6725;48.112;11.604;2023-04-07T11:05:51;95093.75;;;19.31;54.79
13314;BME280;6725;48.112;11.604;2023-04-07T11:08:43;95100.41;;;20.22;50.57
13314;BME280;6725;48.112;11.604;2023-04-07T11:11:10;95105.41;;;19.77;48.45
13314;BME280;6725;48.112;11.604;2023-04-07T11:13:45;95102.28;;;20.07;47.92
13314;BME280;6725;48.112;11.604;2023-04-07T11:16:12;95096.00;;;18.73;49.54
13314;BME280;6725;48.112;11.604;2023-04-07T11:18:39;95094.06;;;17.89;55.75
13314;BME280;6725;48.112;11.604;2023-04-07T11:21:06;95097.19;;;16.69;61.69
13314;BME280;6725;48.112;11.604;2023-04-07T11:23:41;95101.38;;;15.46;70.37
13314;BME280;6725;48.112;11.604;2023-04-07T11:26:08;95094.47;;;14.34;77.91
13314;BME280;6725;48.112;11.604;2023-04-07T11:28:47;95095.44;;;13.67;79.87
13314;BME280;6725;48.112;11.604;2023-04-07T11:31:29;95095.16;;;13.78;79.31
13314;BME280;6725;48.112;11.604;2023-04-07T11:34:03;95084.41;;;13.99;84.09
13314;BME280;6725;48.112;11.604;2023-04-07T11:36:39;95084.59;;;14.90;78.58
13314;BME280;6725;48.112;11.604;2023-04-07T11:39:17;95083.84;;;15.27;76.06
13314;BME280;6725;48.112;11.604;2023-04-07T11:41:45;95081.00;;;15.18;74.68
13314;BME280;6725;48.112;11.604;2023-04-07T11:44:13;95092.22;;;15.61;73.39
13314;BME280;6725;48.112;11.604;2023-04-07T11:49:18;95094.31;;;15.20;73.75
13314;BME280;6725;48.112;11.604;2023-04-07T11:51:44;95085.28;;;16.03;72.24
13314;BME280;6725;48.112;11.604;2023-04-07T11:54:09;95079.06;;;16.24;70.13
13314;BME280;6725;48.112;11.604;2023-04-07T11:56:46;95083.16;;;16.54;69.47
13314;BME280;6725;48.112;11.604;2023-04-07T11:59:24;95087.00;;;15.88;68.01
13314;BME280;6725;48.112;11.604;2023-04-07T12:01:51;95084.72;;;14.99;70.98
13314;BME280;6725;48.112;11.604;2023-04-07T12:04:17;95082.97;;;14.80;76.11
13314;BME280;6725;48.112;11.604;2023-04-07T12:06:45;95076.09;;;14.72;75.78
13314;BME280;6725;48.112;11.604;2023-04-07T12:09:29;95082.91;;;14.55;76.97
13314;BME280;6725;48.112;11.604;2023-04-07T12:11:56;95079.53;;;14.35;80.76
13314;BME280;6725;48.112;11.604;2023-04-07T12:14:25;95070.53;;;14.19;79.30
13314;BME280;6725;48.112;11.604;2023-04-07T12:16:52;95070.44;;;13.94;80.44
13314;BME280;6725;48.112;11.604;2023-04-07T12:19:20;95071.09;;;15.08;77.49
13314;BME280;6725;48.112;11.604;2023-04-07T12:21:45;95074.00;;;15.89;72.67
13314;BME280;6725;48.112;11.604;2023-04-07T12:24:11;95068.91;;;16.56;68.79
13314;BME280;6725;48.112;11.604;2023-04-07T12:26:36;95071.84;;;16.83;63.79
13314;BME280;6725;48.112;11.604;2023-04-07T12:29:02;95074.88;;;16.54;63.04
13314;BME280;6725;48.112;11.604;2023-04-07T12:31:32;95068.28;;;16.17;65.08
13314;BME280;6725;48.112;11.604;2023-04-07T12:33:58;95075.94;;;15.29;69.92
13314;BME280;6725;48.112;11.604;2023-04-07T12:36:24;95077.47;;;14.80;77.58
13314;BME280;6725;48.112;11.604;2023-04-07T12:38:52;95077.09;;;14.66;79.91
13314;BME280;6725;48.112;11.604;2023-04-07T12:41:17;95072.50;;;14.34;81.88
13314;BME280;6725;48.112;11.604;2023-04-07T12:43:43;95072.66;;;14.43;82.63
13314;BME280;6725;48.112;11.604;2023-04-07T12:46:08;95078.91;;;13.99;83.34
13314;BME280;6725;48.112;11.604;2023-04-07T12:48:33;95067.44;;;13.88;85.53
13314;BME280;6725;48.112;11.604;2023-04-07T12:50:59;95075.16;;;13.93;85.86
13314;BME280;6725;48.112;11.604;2023-04-07T12:53:25;95070.41;;;13.81;86.75
13314;BME280;6725;48.112;11.604;2023-04-07T12:55:51;95072.81;;;13.63;85.16
13314;BME280;6725;48.112;11.604;2023-04-07T12:58:16;95078.13;;;13.70;85.38
13314;BME280;6725;48.112;11.604;2023-04-07T13:00:43;95072.06;;;13.91;84.32
13314;BME280;6725;48.112;11.604;2023-04-07T13:03:09;95075.00;;;14.29;85.04
13314;BME280;6725;48.112;11.604;2023-04-07T13:05:34;95073.34;;;14.60;82.63
13314;BME280;6725;48.112;11.604;2023-04-07T13:07:59;95077.09;;;14.66;80.12
13314;BME280;6725;48.112;11.604;2023-04-07T13:10:25;95072.00;;;13.95;82.11
13314;BME280;6725;48.112;11.604;2023-04-07T13:12:51;95073.91;;;13.66;86.87
13314;BME280;6725;48.112;11.604;2023-04-07T13:15:17;95072.00;;;13.95;87.23
13314;BME280;6725;48.112;11.604;2023-04-07T13:17:43;95075.28;;;14.18;87.11
13314;BME280;6725;48.112;11.604;2023-04-07T13:20:08;95076.47;;;14.33;86.85